Terminal Aerodrome Forecast
Issued by NWS

Home | Current Version | Previous Version | Text Only | Print | Product List | Glossary On
Versions: 1 2 3 4 5 6 7 8 9 10 11 12 13 14 15 16 17 18 19 20 21 22
000
FTUS46 KLOX 060200 AAA
TAFSBP
TAF AMD
KSBP 060219Z 0602/0624 30012KT P6SM BKN025
     FM060400 31008KT P6SM BKN020
     FM060800 VRB03KT P6SM OVC020
     FM061900 30014KT P6SM BKN025=

USA.gov is the U.S. government's official web portal to all federal, state and local government web resources and services.